createdAt,value
2019-05-10T00:01:37.272Z,15.80
2019-05-10T00:04:23.787Z,15.70
2019-05-10T00:07:10.300Z,15.50
2019-05-10T00:09:38.547Z,15.40
2019-05-10T00:12:17.929Z,15.40
2019-05-10T00:14:49.712Z,15.40
2019-05-10T00:17:22.307Z,15.40
2019-05-10T00:19:51.487Z,15.30
2019-05-10T00:22:21.635Z,15.40
2019-05-10T00:25:02.893Z,15.40
2019-05-10T00:27:21.084Z,15.50
2019-05-10T00:29:49.842Z,15.60
2019-05-10T00:32:18.777Z,15.70
2019-05-10T00:34:47.594Z,15.80
2019-05-10T00:37:16.413Z,15.80
2019-05-10T00:39:45.155Z,15.40
2019-05-10T00:42:14.209Z,15.40
2019-05-10T00:44:43.029Z,15.30
2019-05-10T00:47:12.957Z,15.20
2019-05-10T00:49:41.805Z,15.10
2019-05-10T00:52:11.383Z,15.30
2019-05-10T00:54:40.146Z,15.50
2019-05-10T00:57:08.845Z,15.60
2019-05-10T00:59:37.589Z,15.70
2019-05-10T01:02:06.408Z,15.80
2019-05-10T01:04:35.156Z,15.90
2019-05-10T01:07:03.893Z,16.00
2019-05-10T01:09:32.623Z,16.00
2019-05-10T01:12:01.650Z,16.10
2019-05-10T01:14:30.450Z,16.10
2019-05-10T01:16:59.446Z,16.20
2019-05-10T01:19:28.338Z,16.10
2019-05-10T01:21:57.082Z,16.00
2019-05-10T01:24:25.814Z,15.80
2019-05-10T01:26:54.552Z,15.80
2019-05-10T01:29:23.390Z,15.80
2019-05-10T01:31:52.412Z,15.40
2019-05-10T01:34:21.143Z,15.50
2019-05-10T01:36:49.928Z,15.40
2019-05-10T01:39:18.766Z,15.60
2019-05-10T01:41:47.595Z,15.80
2019-05-10T01:44:16.409Z,15.70
2019-05-10T01:46:45.695Z,15.70
2019-05-10T01:49:14.503Z,15.40
2019-05-10T01:51:44.006Z,15.40
2019-05-10T01:54:12.814Z,14.60
2019-05-10T01:56:41.647Z,14.90
2019-05-10T01:59:10.766Z,15.00
2019-05-10T02:01:39.527Z,15.10
2019-05-10T02:04:08.332Z,15.20
2019-05-10T02:06:37.158Z,15.40
2019-05-10T02:09:07.304Z,15.30
2019-05-10T02:11:36.184Z,15.30
2019-05-10T02:14:05.096Z,14.70
2019-05-10T02:16:34.566Z,14.60
2019-05-10T02:19:03.439Z,14.50
2019-05-10T02:21:32.580Z,14.60
2019-05-10T02:24:01.326Z,14.60
2019-05-10T02:26:30.213Z,14.80
2019-05-10T02:28:59.225Z,15.20
2019-05-10T02:31:28.053Z,15.30
2019-05-10T02:33:56.853Z,15.30
2019-05-10T02:36:25.846Z,15.30
2019-05-10T02:38:54.931Z,15.10
2019-05-10T02:41:23.839Z,15.20
2019-05-10T02:43:52.643Z,15.00
2019-05-10T02:46:21.763Z,15.20
2019-05-10T02:48:50.641Z,15.20
2019-05-10T02:51:19.719Z,15.40
2019-05-10T02:53:49.553Z,15.20
2019-05-10T02:56:29.647Z,15.30
2019-05-10T02:58:49.889Z,15.20
2019-05-10T03:01:22.617Z,15.20
2019-05-10T03:03:53.063Z,15.30
2019-05-10T03:06:24.517Z,15.40
2019-05-10T03:08:53.785Z,15.50
2019-05-10T03:11:22.555Z,15.60
2019-05-10T03:13:55.553Z,15.50
2019-05-10T03:16:24.416Z,15.10
2019-05-10T03:18:53.930Z,15.20
2019-05-10T03:21:23.853Z,15.40
2019-05-10T03:23:52.898Z,15.50
2019-05-10T03:26:21.830Z,15.60
2019-05-10T03:28:50.933Z,15.70
2019-05-10T03:31:19.769Z,15.70
2019-05-10T03:33:55.597Z,15.80
2019-05-10T03:36:19.682Z,15.70
2019-05-10T03:38:48.726Z,15.70
2019-05-10T03:41:17.782Z,15.70
2019-05-10T03:43:46.994Z,15.70
2019-05-10T03:46:16.090Z,15.70
2019-05-10T03:48:44.821Z,15.70
2019-05-10T03:51:14.656Z,15.70
2019-05-10T03:53:43.445Z,15.70
2019-05-10T03:56:12.382Z,15.70
2019-05-10T03:58:42.125Z,15.80
2019-05-10T04:01:10.877Z,15.70
2019-05-10T04:03:39.681Z,15.70
2019-05-10T04:06:08.784Z,15.60
2019-05-10T04:08:37.511Z,15.50
2019-05-10T04:11:06.383Z,15.50
2019-05-10T04:13:35.573Z,15.40
2019-05-10T04:16:04.742Z,15.50
2019-05-10T04:18:33.545Z,15.50
2019-05-10T04:21:03.558Z,15.50
2019-05-10T04:23:43.665Z,15.60
2019-05-10T04:26:13.170Z,15.60
2019-05-10T04:28:42.255Z,15.40
2019-05-10T04:31:11.558Z,15.60
2019-05-10T04:33:40.396Z,15.60
2019-05-10T04:36:12.535Z,15.70
2019-05-10T04:38:40.186Z,15.70
2019-05-10T04:41:09.022Z,15.70
2019-05-10T04:43:37.736Z,15.80
2019-05-10T04:46:06.540Z,15.90
2019-05-10T04:48:36.787Z,15.90
2019-05-10T04:51:05.511Z,15.90
2019-05-10T04:53:34.603Z,15.90
2019-05-10T04:56:03.887Z,15.80
2019-05-10T04:58:33.034Z,15.90
2019-05-10T05:01:02.809Z,15.90
2019-05-10T05:03:31.918Z,15.80
2019-05-10T05:06:00.993Z,15.70
2019-05-10T05:08:29.936Z,15.80
2019-05-10T05:10:58.753Z,15.70
2019-05-10T05:13:27.521Z,15.70
2019-05-10T05:15:56.505Z,15.90
2019-05-10T05:18:26.722Z,16.00
2019-05-10T05:20:58.001Z,16.10
2019-05-10T05:23:27.651Z,15.90
2019-05-10T05:25:56.381Z,16.10
2019-05-10T05:28:25.292Z,16.10
2019-05-10T05:30:54.549Z,16.10
2019-05-10T05:33:23.306Z,15.80
2019-05-10T05:35:55.553Z,15.80
2019-05-10T05:38:24.416Z,16.00
2019-05-10T05:40:53.228Z,16.10
2019-05-10T05:43:22.505Z,16.10
2019-05-10T05:45:54.592Z,16.30
2019-05-10T05:48:39.432Z,16.60
2019-05-10T05:50:55.278Z,16.70
2019-05-10T05:53:24.161Z,16.70
2019-05-10T05:55:53.261Z,16.80
2019-05-10T05:58:29.131Z,16.60
2019-05-10T06:00:52.866Z,16.60
2019-05-10T06:03:27.538Z,16.70
2019-05-10T06:05:54.142Z,16.60
2019-05-10T06:08:24.923Z,16.80
2019-05-10T06:10:57.679Z,16.80
2019-05-10T06:13:30.286Z,16.80
2019-05-10T06:15:54.891Z,16.70
2019-05-10T06:18:23.644Z,16.50
2019-05-10T06:20:52.649Z,16.50
2019-05-10T06:23:21.828Z,16.30
2019-05-10T06:25:51.314Z,16.30
2019-05-10T06:28:28.677Z,16.30
2019-05-10T06:30:51.404Z,16.20
2019-05-10T06:33:20.240Z,16.30
2019-05-10T06:35:49.484Z,16.30
2019-05-10T06:38:18.304Z,16.40
2019-05-10T06:40:48.110Z,16.40
2019-05-10T06:43:17.345Z,16.10
2019-05-10T06:45:46.567Z,16.20
2019-05-10T06:48:25.962Z,16.30
2019-05-10T06:50:48.550Z,16.20
2019-05-10T06:53:23.457Z,16.10
2019-05-10T06:55:53.039Z,16.40
2019-05-10T06:58:22.195Z,16.20
2019-05-10T07:00:51.640Z,16.20
2019-05-10T07:03:20.561Z,16.50
2019-05-10T07:05:49.309Z,16.80
2019-05-10T07:08:20.581Z,17.10
2019-05-10T07:10:49.753Z,17.10
2019-05-10T07:13:18.494Z,17.20
2019-05-10T07:15:47.375Z,17.00
2019-05-10T07:18:17.028Z,17.10
2019-05-10T07:20:46.994Z,16.90
2019-05-10T07:23:16.048Z,17.30
2019-05-10T07:25:46.726Z,17.60
2019-05-10T07:28:17.285Z,17.80
2019-05-10T07:30:46.112Z,17.90
2019-05-10T07:33:15.748Z,17.80
2019-05-10T07:35:44.569Z,17.90
2019-05-10T07:38:13.609Z,17.90
2019-05-10T07:40:42.437Z,17.90
2019-05-10T07:43:11.397Z,17.80
2019-05-10T07:45:40.501Z,17.90
2019-05-10T07:48:10.375Z,17.90
2019-05-10T07:50:42.210Z,17.80
2019-05-10T07:53:10.128Z,17.50
2019-05-10T07:55:39.336Z,17.40
2019-05-10T07:58:08.053Z,17.30
2019-05-10T08:00:37.982Z,16.90
2019-05-10T08:03:15.829Z,17.00
2019-05-10T08:05:39.084Z,16.80
2019-05-10T08:08:09.566Z,16.80
2019-05-10T08:10:39.375Z,17.20
2019-05-10T08:13:08.990Z,16.90
2019-05-10T08:15:38.403Z,17.10
2019-05-10T08:18:09.864Z,17.60
2019-05-10T08:20:49.627Z,18.20
2019-05-10T08:23:09.268Z,18.60
2019-05-10T08:25:43.969Z,18.90
2019-05-10T08:28:08.809Z,18.70
2019-05-10T08:30:51.325Z,18.80
2019-05-10T08:33:14.440Z,18.70
2019-05-10T08:35:45.525Z,19.10
2019-05-10T08:38:13.124Z,18.90
2019-05-10T08:40:42.835Z,19.40
2019-05-10T08:43:16.041Z,19.40
2019-05-10T08:45:44.889Z,19.40
2019-05-10T08:48:13.244Z,18.50
2019-05-10T08:50:50.610Z,18.80
2019-05-10T08:53:16.472Z,18.60
2019-05-10T08:55:43.812Z,18.70
2019-05-10T08:58:13.024Z,18.80
2019-05-10T09:00:54.398Z,18.10
2019-05-10T09:03:18.320Z,18.00
2019-05-10T09:05:43.490Z,18.00
2019-05-10T09:08:19.624Z,18.60
2019-05-10T09:10:43.096Z,19.10
2019-05-10T09:13:12.813Z,19.20
2019-05-10T09:15:51.328Z,19.50
2019-05-10T09:18:13.011Z,20.00
2019-05-10T09:20:42.257Z,18.80
2019-05-10T09:23:15.316Z,19.10
2019-05-10T09:25:42.837Z,18.90
2019-05-10T09:28:16.821Z,19.50
2019-05-10T09:30:56.455Z,19.60
2019-05-10T09:33:14.447Z,19.90
2019-05-10T09:35:46.793Z,20.00
2019-05-10T09:38:13.650Z,20.10
2019-05-10T09:40:50.835Z,20.10
2019-05-10T09:43:14.974Z,19.90
2019-05-10T09:45:43.592Z,19.60
2019-05-10T09:48:12.450Z,19.30
2019-05-10T09:50:46.727Z,18.90
2019-05-10T09:53:13.530Z,18.10
2019-05-10T09:55:45.623Z,17.60
2019-05-10T09:58:13.587Z,17.80
2019-05-10T10:00:42.356Z,17.60
2019-05-10T10:03:12.859Z,17.40
2019-05-10T10:05:41.697Z,16.60
2019-05-10T10:08:10.998Z,16.60
2019-05-10T10:10:40.142Z,16.90
2019-05-10T10:13:13.504Z,16.90
2019-05-10T10:15:39.459Z,17.50
2019-05-10T10:18:12.708Z,17.50
2019-05-10T10:20:43.420Z,17.40
2019-05-10T10:23:10.117Z,17.20
2019-05-10T10:25:40.848Z,17.10
2019-05-10T10:28:16.969Z,17.00
2019-05-10T10:30:40.290Z,17.20
2019-05-10T10:33:11.331Z,17.30
2019-05-10T10:35:40.627Z,16.90
2019-05-10T10:38:09.803Z,17.30
2019-05-10T10:40:44.346Z,17.70
2019-05-10T10:43:09.025Z,17.70
2019-05-10T10:45:37.902Z,17.60
2019-05-10T10:48:08.461Z,17.30
2019-05-10T10:50:37.499Z,16.50
2019-05-10T10:53:08.044Z,16.60
2019-05-10T10:55:40.043Z,16.90
2019-05-10T10:58:07.641Z,17.10
2019-05-10T11:00:38.930Z,17.60
2019-05-10T11:03:07.843Z,17.00
2019-05-10T11:05:36.633Z,16.80
2019-05-10T11:08:05.380Z,17.20
2019-05-10T11:10:34.262Z,17.90
2019-05-10T11:13:11.947Z,18.40
2019-05-10T11:15:36.215Z,18.80
2019-05-10T11:18:04.190Z,19.00
2019-05-10T11:20:33.154Z,18.90
2019-05-10T11:23:02.122Z,19.10
2019-05-10T11:25:30.946Z,18.70
2019-05-10T11:28:03.429Z,19.10
2019-05-10T11:30:32.706Z,19.40
2019-05-10T11:33:01.964Z,19.60
2019-05-10T11:35:34.218Z,19.60
2019-05-10T11:38:06.856Z,19.50
2019-05-10T11:40:35.213Z,19.10
2019-05-10T11:43:04.889Z,19.30
2019-05-10T11:45:35.200Z,19.80
2019-05-10T11:48:06.429Z,20.00
2019-05-10T11:50:35.720Z,20.30
2019-05-10T11:53:06.832Z,20.50
2019-05-10T11:55:39.568Z,20.70
2019-05-10T11:58:08.712Z,20.70
2019-05-10T12:00:37.075Z,20.80
2019-05-10T12:03:12.643Z,20.90
2019-05-10T12:05:36.889Z,20.90
2019-05-10T12:08:05.754Z,20.90
2019-05-10T12:10:34.820Z,20.60
2019-05-10T12:13:14.879Z,20.70
2019-05-10T12:15:34.642Z,20.70
2019-05-10T12:20:48.053Z,20.30
2019-05-10T12:23:05.002Z,20.60
2019-05-10T12:25:51.483Z,20.70
2019-05-10T12:26:27.770Z,20.60
2019-05-10T12:28:05.238Z,20.50
2019-05-10T12:30:36.893Z,20.20
2019-05-10T12:33:09.520Z,20.70
2019-05-10T12:35:40.748Z,21.00
2019-05-10T12:38:06.627Z,21.20
2019-05-10T12:40:35.716Z,21.40
2019-05-10T12:43:04.603Z,21.40
2019-05-10T12:45:33.717Z,21.40
2019-05-10T12:48:02.447Z,21.60
2019-05-10T12:50:31.542Z,21.90
2019-05-10T12:53:08.308Z,22.00
2019-05-10T12:55:30.863Z,21.80
2019-05-10T12:57:59.863Z,21.70
2019-05-10T13:00:28.638Z,21.60
2019-05-10T13:03:11.549Z,21.60
2019-05-10T13:05:32.086Z,21.10
2019-05-10T13:07:58.624Z,21.30
2019-05-10T13:10:27.925Z,21.20
2019-05-10T13:12:58.066Z,21.10
2019-05-10T13:15:31.075Z,20.80
2019-05-10T13:17:57.985Z,20.20
2019-05-10T13:20:30.730Z,19.50
2019-05-10T13:22:57.674Z,18.80
2019-05-10T13:25:26.406Z,18.10
2019-05-10T13:27:55.262Z,16.70
2019-05-10T13:30:28.248Z,16.50
2019-05-10T13:32:58.757Z,16.40
2019-05-10T13:35:26.114Z,16.60
2019-05-10T13:37:56.979Z,16.40
2019-05-10T13:40:26.953Z,16.20
2019-05-10T13:42:55.683Z,16.70
2019-05-10T13:45:24.466Z,17.10
2019-05-10T13:47:53.440Z,17.40
2019-05-10T13:50:22.642Z,18.20
2019-05-10T13:52:51.379Z,18.60
2019-05-10T13:55:20.421Z,18.80
2019-05-10T13:57:49.452Z,19.20
2019-05-10T14:00:18.786Z,19.30
2019-05-10T14:02:48.117Z,18.60
2019-05-10T14:05:17.853Z,18.50
2019-05-10T14:07:51.677Z,16.90
2019-05-10T14:10:23.456Z,16.40
2019-05-10T14:12:49.305Z,16.80
2019-05-10T14:15:18.435Z,16.90
2019-05-10T14:17:48.275Z,16.60
2019-05-10T14:20:25.338Z,16.20
2019-05-10T14:22:55.463Z,16.30
2019-05-10T14:25:19.371Z,16.70
2019-05-10T14:27:48.149Z,16.40
2019-05-10T14:30:17.377Z,16.30
2019-05-10T14:32:46.128Z,16.10
2019-05-10T14:35:16.398Z,16.20
2019-05-10T14:37:48.001Z,16.70
2019-05-10T14:40:27.651Z,17.40
2019-05-10T14:42:48.136Z,18.00
2019-05-10T14:45:17.959Z,17.60
2019-05-10T14:47:50.058Z,17.40
2019-05-10T14:50:19.343Z,16.90
2019-05-10T14:52:49.007Z,17.30
2019-05-10T14:55:17.929Z,17.00
2019-05-10T14:57:48.615Z,16.80
2019-05-10T15:00:18.738Z,17.00
2019-05-10T15:02:47.862Z,17.20
2019-05-10T15:05:18.374Z,16.50
2019-05-10T15:07:50.908Z,16.80
2019-05-10T15:10:18.463Z,16.70
2019-05-10T15:12:47.541Z,16.50
2019-05-10T15:15:16.721Z,16.60
2019-05-10T15:17:45.548Z,16.90
2019-05-10T15:20:14.562Z,16.50
2019-05-10T15:22:43.676Z,16.40
2019-05-10T15:25:12.859Z,16.00
2019-05-10T15:27:41.836Z,16.30
2019-05-10T15:30:11.294Z,16.30
2019-05-10T15:32:40.197Z,16.50
2019-05-10T15:35:09.588Z,16.70
2019-05-10T15:37:40.893Z,16.90
2019-05-10T15:40:09.564Z,16.90
2019-05-10T15:42:38.706Z,16.90
2019-05-10T15:45:12.211Z,17.00
2019-05-10T15:47:50.775Z,16.60
2019-05-10T15:50:09.756Z,16.30
2019-05-10T15:52:46.040Z,15.80
2019-05-10T15:55:09.471Z,15.50
2019-05-10T15:57:38.446Z,15.70
2019-05-10T16:00:08.170Z,15.40
2019-05-10T16:02:36.953Z,15.80
2019-05-10T16:05:23.283Z,15.80
2019-05-10T16:07:37.318Z,15.70
2019-05-10T16:10:07.751Z,15.70
2019-05-10T16:12:37.916Z,16.00
2019-05-10T16:15:07.625Z,16.30
2019-05-10T16:17:40.720Z,16.40
2019-05-10T16:20:09.846Z,16.60
2019-05-10T16:22:38.717Z,16.60
2019-05-10T16:25:08.351Z,16.90
2019-05-10T16:27:41.690Z,17.00
2019-05-10T16:30:17.710Z,17.20
2019-05-10T16:32:43.764Z,17.00
2019-05-10T16:35:14.545Z,17.10
2019-05-10T16:37:43.312Z,17.20
2019-05-10T16:40:12.855Z,17.40
2019-05-10T16:42:41.974Z,17.10
2019-05-10T16:45:11.309Z,16.80
2019-05-10T16:47:40.222Z,16.30
2019-05-10T16:50:12.597Z,16.50
2019-05-10T16:52:41.701Z,17.10
2019-05-10T16:55:10.741Z,18.70
2019-05-10T16:57:39.911Z,19.10
2019-05-10T17:00:10.750Z,19.20
2019-05-10T17:02:41.957Z,19.10
2019-05-10T17:05:15.097Z,19.30
2019-05-10T17:07:41.191Z,18.10
2019-05-10T17:10:10.718Z,19.30
2019-05-10T17:12:39.529Z,19.10
2019-05-10T17:15:08.777Z,19.30
2019-05-10T17:17:39.286Z,18.80
2019-05-10T17:20:14.097Z,18.80
2019-05-10T17:22:39.247Z,19.30
2019-05-10T17:25:10.109Z,20.40
2019-05-10T17:27:38.921Z,20.80
2019-05-10T17:30:08.001Z,20.80
2019-05-10T17:32:39.398Z,20.60
2019-05-10T17:35:08.676Z,20.10
2019-05-10T17:37:37.639Z,19.20
2019-05-10T17:40:10.146Z,19.20
2019-05-10T17:42:41.090Z,19.60
2019-05-10T17:45:08.677Z,19.60
2019-05-10T17:47:37.737Z,20.00
2019-05-10T17:50:06.674Z,20.60
2019-05-10T17:52:35.470Z,20.70
2019-05-10T17:55:04.796Z,20.90
2019-05-10T17:57:33.802Z,21.00
2019-05-10T18:00:02.737Z,21.10
2019-05-10T18:02:31.834Z,21.00
2019-05-10T18:05:06.307Z,20.90
2019-05-10T18:07:31.699Z,20.50
2019-05-10T18:10:00.784Z,19.90
2019-05-10T18:12:29.498Z,19.70
2019-05-10T18:14:58.606Z,19.40
2019-05-10T18:17:30.642Z,19.30
2019-05-10T18:20:02.384Z,19.10
2019-05-10T18:22:30.342Z,18.80
2019-05-10T18:24:59.347Z,18.60
2019-05-10T18:27:28.372Z,18.40
2019-05-10T18:29:57.345Z,18.20
2019-05-10T18:32:29.406Z,18.00
2019-05-10T18:34:57.028Z,17.70
2019-05-10T18:37:26.670Z,17.50
2019-05-10T18:39:55.941Z,17.40
2019-05-10T18:42:25.844Z,17.00
2019-05-10T18:44:55.597Z,16.70
2019-05-10T18:47:24.372Z,16.40
2019-05-10T18:49:53.117Z,16.10
2019-05-10T18:52:21.945Z,16.10
2019-05-10T18:54:51.129Z,16.20
2019-05-10T18:57:20.181Z,16.10
2019-05-10T18:59:49.028Z,16.00
2019-05-10T19:02:19.683Z,16.00
2019-05-10T19:04:51.946Z,15.90
2019-05-10T19:07:19.250Z,15.90
2019-05-10T19:09:48.716Z,15.90
2019-05-10T19:12:21.701Z,15.80
2019-05-10T19:14:47.994Z,15.60
2019-05-10T19:17:16.842Z,15.50
2019-05-10T19:19:45.997Z,15.40
2019-05-10T19:22:14.824Z,15.20
2019-05-10T19:24:43.884Z,15.10
2019-05-10T19:27:12.666Z,15.00
2019-05-10T19:29:45.814Z,15.00
2019-05-10T19:32:18.069Z,15.00
2019-05-10T19:34:48.403Z,14.90
2019-05-10T19:37:27.980Z,14.70
2019-05-10T19:39:44.225Z,14.70
2019-05-10T19:42:12.956Z,14.60
2019-05-10T19:44:42.271Z,14.60
2019-05-10T19:47:17.375Z,14.50
2019-05-10T19:49:45.826Z,14.40
2019-05-10T19:52:13.165Z,14.20
2019-05-10T19:54:41.994Z,14.00
2019-05-10T19:57:16.231Z,13.90
2019-05-10T19:59:43.922Z,13.80
2019-05-10T20:02:12.465Z,13.80
2019-05-10T20:04:41.242Z,13.80
2019-05-10T20:07:09.970Z,13.80
2019-05-10T20:09:38.811Z,13.80
2019-05-10T20:12:07.634Z,13.80
2019-05-10T20:14:36.400Z,13.70
2019-05-10T20:17:05.265Z,13.60
2019-05-10T20:19:34.536Z,13.60
2019-05-10T20:22:03.642Z,13.70
2019-05-10T20:24:32.856Z,13.60
2019-05-10T20:27:01.721Z,13.60
2019-05-10T20:29:30.521Z,13.60
2019-05-10T20:31:59.351Z,13.40
2019-05-10T20:34:28.096Z,13.20
2019-05-10T20:36:57.141Z,13.20
2019-05-10T20:39:26.713Z,13.30
2019-05-10T20:41:55.600Z,13.20
2019-05-10T20:44:25.856Z,13.10
2019-05-10T20:46:55.003Z,13.10
2019-05-10T20:49:23.860Z,13.00
2019-05-10T20:51:53.705Z,13.00
2019-05-10T20:54:22.500Z,13.00
2019-05-10T20:56:51.318Z,13.10
2019-05-10T20:59:20.061Z,13.10
2019-05-10T21:01:48.962Z,13.00
2019-05-10T21:04:17.684Z,12.90
2019-05-10T21:06:46.988Z,12.80
2019-05-10T21:09:16.168Z,12.80
2019-05-10T21:11:45.099Z,12.90
2019-05-10T21:14:13.890Z,12.90
2019-05-10T21:16:42.928Z,13.00
2019-05-10T21:19:11.631Z,13.00
2019-05-10T21:21:40.389Z,12.90
2019-05-10T21:24:09.517Z,12.80
2019-05-10T21:26:38.395Z,12.80
2019-05-10T21:29:07.114Z,12.80
2019-05-10T21:31:36.001Z,12.60
2019-05-10T21:34:09.912Z,12.60
2019-05-10T21:36:58.768Z,12.60
2019-05-10T21:39:27.584Z,12.50
2019-05-10T21:41:56.430Z,12.60
2019-05-10T21:44:26.141Z,12.60
2019-05-10T21:46:56.027Z,12.60
2019-05-10T21:49:25.514Z,12.60
2019-05-10T21:51:54.977Z,12.70
2019-05-10T21:54:24.132Z,12.70
2019-05-10T21:56:54.798Z,12.80
2019-05-10T21:59:23.730Z,12.70
2019-05-10T22:01:52.483Z,12.80
2019-05-10T22:04:21.213Z,12.80
2019-05-10T22:06:49.995Z,12.70
2019-05-10T22:09:18.890Z,12.60
2019-05-10T22:11:47.751Z,12.60
2019-05-10T22:14:16.841Z,12.60
2019-05-10T22:16:45.650Z,12.40
2019-05-10T22:19:15.194Z,12.40
2019-05-10T22:21:44.043Z,12.50
2019-05-10T22:24:12.905Z,12.50
2019-05-10T22:26:41.972Z,12.50
2019-05-10T22:29:10.828Z,12.60
2019-05-10T22:31:39.661Z,12.30
2019-05-10T22:34:08.379Z,12.30
2019-05-10T22:36:37.244Z,12.40
2019-05-10T22:39:07.910Z,12.50
2019-05-10T22:41:36.956Z,12.50
2019-05-10T22:44:05.852Z,12.50
2019-05-10T22:46:34.698Z,12.50
2019-05-10T22:49:03.795Z,12.50
2019-05-10T22:51:32.553Z,12.30
2019-05-10T22:54:01.373Z,12.30
2019-05-10T22:56:30.310Z,12.30
2019-05-10T22:58:59.386Z,12.20
2019-05-10T23:01:28.204Z,12.30
2019-05-10T23:03:56.994Z,12.40
2019-05-10T23:06:25.753Z,12.40
2019-05-10T23:08:54.824Z,12.40
2019-05-10T23:11:23.702Z,12.30
2019-05-10T23:13:52.503Z,12.40
2019-05-10T23:16:21.558Z,12.50
2019-05-10T23:18:50.425Z,12.60
2019-05-10T23:21:19.195Z,12.60
2019-05-10T23:23:47.929Z,12.50
2019-05-10T23:26:17.105Z,12.40
2019-05-10T23:28:45.852Z,12.30
2019-05-10T23:31:15.003Z,12.40
2019-05-10T23:33:43.856Z,12.50
2019-05-10T23:36:12.610Z,12.60
2019-05-10T23:38:41.355Z,12.60
2019-05-10T23:41:10.161Z,12.50
2019-05-10T23:43:38.974Z,12.40
2019-05-10T23:46:07.820Z,12.40
2019-05-10T23:48:36.642Z,12.50
2019-05-10T23:51:05.461Z,12.60
2019-05-10T23:53:34.349Z,12.30
2019-05-10T23:56:03.208Z,12.40
2019-05-10T23:58:32.026Z,12.30
